地図

経路データ

SID SEASON NUMBER BASIN SUBBASIN NAME ISO_TIME NATURE LAT LON WMO_WIND WMO_PRES WMO_AGENCY TRACK_TYPE DIST2LAND LANDFALL IFLAG USA_AGENCY USA_ATCF_ID USA_LAT USA_LON USA_RECORD USA_STATUS USA_WIND USA_PRES USA_SSHS USA_R34_NE USA_R34_SE USA_R34_SW USA_R34_NW USA_R50_NE USA_R50_SE USA_R50_SW USA_R50_NW USA_R64_NE USA_R64_SE USA_R64_SW USA_R64_NW USA_POCI USA_ROCI USA_RMW USA_EYE TOKYO_LAT TOKYO_LON TOKYO_GRADE TOKYO_WIND TOKYO_PRES TOKYO_R50_DIR TOKYO_R50_LONG TOKYO_R50_SHORT TOKYO_R30_DIR TOKYO_R30_LONG TOKYO_R30_SHORT TOKYO_LAND CMA_LAT CMA_LON CMA_CAT CMA_WIND CMA_PRES HKO_LAT HKO_LON HKO_CAT HKO_WIND HKO_PRES NEWDELHI_LAT NEWDELHI_LON NEWDELHI_GRADE NEWDELHI_WIND NEWDELHI_PRES NEWDELHI_CI NEWDELHI_DP NEWDELHI_POCI REUNION_LAT REUNION_LON REUNION_TYPE REUNION_WIND REUNION_PRES REUNION_TNUM REUNION_CI REUNION_RMW REUNION_R34_NE REUNION_R34_SE REUNION_R34_SW REUNION_R34_NW REUNION_R50_NE REUNION_R50_SE REUNION_R50_SW REUNION_R50_NW REUNION_R64_NE REUNION_R64_SE REUNION_R64_SW REUNION_R64_NW BOM_LAT BOM_LON BOM_TYPE BOM_WIND BOM_PRES BOM_TNUM BOM_CI BOM_RMW BOM_R34_NE BOM_R34_SE BOM_R34_SW BOM_R34_NW BOM_R50_NE BOM_R50_SE BOM_R50_SW BOM_R50_NW BOM_R64_NE BOM_R64_SE BOM_R64_SW BOM_R64_NW BOM_ROCI BOM_POCI BOM_EYE BOM_POS_METHOD BOM_PRES_METHOD NADI_LAT NADI_LON NADI_CAT NADI_WIND NADI_PRES WELLINGTON_LAT WELLINGTON_LON WELLINGTON_WIND WELLINGTON_PRES DS824_LAT DS824_LON DS824_STAGE DS824_WIND DS824_PRES TD9636_LAT TD9636_LON TD9636_STAGE TD9636_WIND TD9636_PRES TD9635_LAT TD9635_LON TD9635_WIND TD9635_PRES TD9635_ROCI NEUMANN_LAT NEUMANN_LON NEUMANN_CLASS NEUMANN_WIND NEUMANN_PRES MLC_LAT MLC_LON MLC_CLASS MLC_WIND MLC_PRES USA_GUST BOM_GUST BOM_GUST_PER REUNION_GUST REUNION_GUST_PER USA_SEAHGT USA_SEARAD_NE USA_SEARAD_SE USA_SEARAD_SW USA_SEARAD_NW STORM_SPEED STORM_DIR
1900239N15318 1900 22 NA NA NOT_NAMED 1900-08-27 00:00:00 TS 15.0000 -42.1000 35 hurdat_atl main 1565 1533 O_____________ hurdat_atl AL011900 15.0000 -42.1000 TS 35 0 13 280
1900239N15318 1900 22 NA NA NOT_NAMED 1900-08-27 03:00:00 TS 15.1102 -42.7399 main 1533 1496 P_____________ AL011900 15.1102 -42.7399 TS 35 0 13 279
1900239N15318 1900 22 NA NA NOT_NAMED 1900-08-27 06:00:00 TS 15.2000 -43.4000 35 hurdat_atl main 1496 1459 O_____________ hurdat_atl AL011900 15.2000 -43.4000 TS 35 0 13 276
1900239N15318 1900 22 NA NA NOT_NAMED 1900-08-27 09:00:00 TS 15.2575 -44.0801 main 1462 1423 P_____________ AL011900 15.2575 -44.0801 TS 35 0 13 275
1900239N15318 1900 22 NA NA NOT_NAMED 1900-08-27 12:00:00 TS 15.3000 -44.7000 35 hurdat_atl main 1423 1397 O_____________ hurdat_atl AL011900 15.3000 -44.7000 TS 35 0 11 275
1900239N15318 1900 22 NA NA NOT_NAMED 1900-08-27 15:00:00 TS 15.3422 -45.1726 main 1390 1375 P_____________ AL011900 15.3422 -45.1726 TS 35 0 9 277
1900239N15318 1900 22 NA NA NOT_NAMED 1900-08-27 18:00:00 TS 15.4000 -45.6000 35 hurdat_atl main 1375 1357 O_____________ hurdat_atl AL011900 15.4000 -45.6000 TS 35 0 9 280
1900239N15318 1900 22 NA NA NOT_NAMED 1900-08-27 21:00:00 TS 15.4923 -46.0700 main 1354 1336 P_____________ AL011900 15.4923 -46.0700 TS 35 0 10 282
1900239N15318 1900 22 NA NA NOT_NAMED 1900-08-28 00:00:00 TS 15.6000 -46.6000 35 hurdat_atl main 1336 1315 O_____________ hurdat_atl AL011900 15.6000 -46.6000 TS 35 0 11 280
1900239N15318 1900 22 NA NA NOT_NAMED 1900-08-28 03:00:00 TS 15.7001 -47.2350 main 1315 1292 P_____________ AL011900 15.7001 -47.2350 TS 35 0 13 279
1900239N15318 1900 22 NA NA NOT_NAMED 1900-08-28 06:00:00 TS 15.8000 -47.9000 35 hurdat_atl main 1292 1276 O_____________ hurdat_atl AL011900 15.8000 -47.9000 TS 35 0 12 280
1900239N15318 1900 22 NA NA NOT_NAMED 1900-08-28 09:00:00 TS 15.9073 -48.5075 main 1276 1260 P_____________ AL011900 15.9073 -48.5075 TS 35 0 12 280
1900239N15318 1900 22 NA NA NOT_NAMED 1900-08-28 12:00:00 TS 16.0000 -49.1000 35 hurdat_atl main 1260 1233 O_____________ hurdat_atl AL011900 16.0000 -49.1000 TS 35 0 12 277
1900239N15318 1900 22 NA NA NOT_NAMED 1900-08-28 15:00:00 TS 16.0499 -49.7077 main 1233 1218 P_____________ AL011900 16.0499 -49.7077 TS 35 0 12 275
1900239N15318 1900 22 NA NA NOT_NAMED 1900-08-28 18:00:00 TS 16.1000 -50.3000 35 hurdat_atl main 1218 1207 O_____________ hurdat_atl AL011900 16.1000 -50.3000 TS 35 0 11 278
1900239N15318 1900 22 NA NA NOT_NAMED 1900-08-28 21:00:00 TS 16.1999 -50.8649 main 1208 1202 P_____________ AL011900 16.1999 -50.8649 TS 35 0 11 281
1900239N15318 1900 22 NA NA NOT_NAMED 1900-08-29 00:00:00 TS 16.3000 -51.4000 35 hurdat_atl main 1204 1172 O_____________ hurdat_atl AL011900 16.3000 -51.4000 TS 35 0 10 279
1900239N15318 1900 22 NA NA NOT_NAMED 1900-08-29 03:00:00 TS 16.3572 -51.8851 main 1172 1127 P_____________ AL011900 16.3572 -51.8851 TS 35 0 10 276
1900239N15318 1900 22 NA NA NOT_NAMED 1900-08-29 06:00:00 TS 16.4000 -52.4000 35 hurdat_atl main 1127 1074 O_____________ hurdat_atl AL011900 16.4000 -52.4000 TS 35 0 11 275
1900239N15318 1900 22 NA NA NOT_NAMED 1900-08-29 09:00:00 TS 16.4499 -53.0200 main 1074 1021 P_____________ AL011900 16.4499 -53.0200 TS 37 0 13 275
1900239N15318 1900 22 NA NA NOT_NAMED 1900-08-29 12:00:00 TS 16.5000 -53.7000 40 hurdat_atl main 1021 972 O_____________ hurdat_atl AL011900 16.5000 -53.7000 TS 40 0 13 274
1900239N15318 1900 22 NA NA NOT_NAMED 1900-08-29 15:00:00 TS 16.5423 -54.3851 main 964 918 P_____________ AL011900 16.5423 -54.3851 TS 40 0 13 274
1900239N15318 1900 22 NA NA NOT_NAMED 1900-08-29 18:00:00 TS 16.6000 -55.1000 40 hurdat_atl main 918 875 O_____________ hurdat_atl AL011900 16.6000 -55.1000 TS 40 0 14 276
1900239N15318 1900 22 NA NA NOT_NAMED 1900-08-29 21:00:00 TS 16.6999 -55.8499 main 875 832 P_____________ AL011900 16.6999 -55.8499 TS 40 0 15 278
1900239N15318 1900 22 NA NA NOT_NAMED 1900-08-30 00:00:00 TS 16.8000 -56.6000 40 hurdat_atl main 832 796 O_____________ hurdat_atl AL011900 16.8000 -56.6000 TS 40 0 14 276
1900239N15318 1900 22 NA NA NOT_NAMED 1900-08-30 03:00:00 TS 16.8573 -57.3151 main 800 766 P_____________ AL011900 16.8573 -57.3151 TS 40 0 13 274
1900239N15318 1900 22 NA NA NOT_NAMED 1900-08-30 06:00:00 TS 16.9000 -58.0000 40 hurdat_atl main 766 744 O_____________ hurdat_atl AL011900 16.9000 -58.0000 TS 40 0 13 274
1900239N15318 1900 22 NA NA NOT_NAMED 1900-08-30 09:00:00 TS 16.9572 -58.6575 main 743 681 P_____________ AL011900 16.9572 -58.6575 TS 42 0 12 275
1900239N15318 1900 22 NA NA NOT_NAMED 1900-08-30 12:00:00 TS 17.0000 -59.3000 45 hurdat_atl main 681 618 O_____________ hurdat_atl AL011900 17.0000 -59.3000 TS 45 0 12 272
1900239N15318 1900 22 NA NA NOT_NAMED 1900-08-30 15:00:00 TS 16.9998 -59.9502 main 608 546 P_____________ AL011900 16.9998 -59.9502 TS 45 0 12 270
1900239N15318 1900 22 NA CS NOT_NAMED 1900-08-30 18:00:00 TS 17.0000 -60.6000 45 hurdat_atl main 546 485 O_____________ hurdat_atl AL011900 17.0000 -60.6000 TS 45 0 12 272
1900239N15318 1900 22 NA CS NOT_NAMED 1900-08-30 21:00:00 TS 17.0422 -61.2425 main 485 410 P_____________ AL011900 17.0422 -61.2425 TS 45 0 12 275
1900239N15318 1900 22 NA CS NOT_NAMED 1900-08-31 00:00:00 TS 17.1000 -61.9000 45 hurdat_atl main 410 340 O_____________ hurdat_atl AL011900 17.1000 -61.9000 TS 45 0 13 275
1900239N15318 1900 22 NA CS NOT_NAMED 1900-08-31 03:00:00 TS 17.1498 -62.5925 main 340 268 P_____________ AL011900 17.1498 -62.5925 TS 45 0 13 274
1900239N15318 1900 22 NA CS NOT_NAMED 1900-08-31 06:00:00 TS 17.2000 -63.3000 45 hurdat_atl main 268 203 O_____________ hurdat_atl AL011900 17.2000 -63.3000 TS 45 0 14 274
1900239N15318 1900 22 NA CS NOT_NAMED 1900-08-31 09:00:00 TS 17.2501 -64.0375 main 197 138 P_____________ AL011900 17.2501 -64.0375 TS 45 0 13 274
1900239N15318 1900 22 NA CS NOT_NAMED 1900-08-31 12:00:00 TS 17.3000 -64.7000 45 hurdat_atl main 138 100 O_____________ hurdat_atl AL011900 17.3000 -64.7000 TS 45 0 11 275
1900239N15318 1900 22 NA CS NOT_NAMED 1900-08-31 15:00:00 TS 17.3496 -65.1950 main 100 70 P_____________ AL011900 17.3496 -65.1950 TS 45 0 9 277
1900239N15318 1900 22 NA CS NOT_NAMED 1900-08-31 18:00:00 TS 17.4000 -65.6000 45 hurdat_atl main 70 59 O_____________ hurdat_atl AL011900 17.4000 -65.6000 TS 45 0 8 277
1900239N15318 1900 22 NA CS NOT_NAMED 1900-08-31 21:00:00 TS 17.4498 -65.9925 main 59 44 P_____________ AL011900 17.4498 -65.9925 TS 45 0 8 277
1900239N15318 1900 22 NA CS NOT_NAMED 1900-09-01 00:00:00 TS 17.5000 -66.4000 45 hurdat_atl main 49 44 O_____________ hurdat_atl AL011900 17.5000 -66.4000 TS 45 0 9 277
1900239N15318 1900 22 NA CS NOT_NAMED 1900-09-01 03:00:00 TS 17.5500 -66.8925 main 33 33 P_____________ AL011900 17.5500 -66.8925 TS 45 0 10 276
1900239N15318 1900 22 NA CS NOT_NAMED 1900-09-01 06:00:00 TS 17.6000 -67.4000 45 hurdat_atl main 39 39 O_____________ hurdat_atl AL011900 17.6000 -67.4000 TS 45 0 9 275
1900239N15318 1900 22 NA CS NOT_NAMED 1900-09-01 09:00:00 TS 17.6348 -67.8576 main 81 64 P_____________ AL011900 17.6348 -67.8576 TS 45 0 9 277
1900239N15318 1900 22 NA CS NOT_NAMED 1900-09-01 12:00:00 TS 17.7000 -68.3000 45 hurdat_atl main 64 44 O_____________ hurdat_atl AL011900 17.7000 -68.3000 TS 45 0 9 283
1900239N15318 1900 22 NA CS NOT_NAMED 1900-09-01 15:00:00 TS 17.8348 -68.7350 main 44 33 P_____________ AL011900 17.8348 -68.7350 TS 42 0 9 289
1900239N15318 1900 22 NA CS NOT_NAMED 1900-09-01 18:00:00 TS 18.0000 -69.2000 40 hurdat_atl main 47 33 O_____________ hurdat_atl AL011900 18.0000 -69.2000 TS 40 0 10 288
1900239N15318 1900 22 NA CS NOT_NAMED 1900-09-01 21:00:00 TS 18.1425 -69.7426 main 35 0 P_____________ AL011900 18.1425 -69.7426 TS 40 0 11 286
1900239N15318 1900 22 NA NA NOT_NAMED 1900-09-02 00:00:00 TS 18.3000 -70.3000 40 hurdat_atl main 0 0 O_____________ hurdat_atl AL011900 18.3000 -70.3000 TS 40 0 11 289
1900239N15318 1900 22 NA NA NOT_NAMED 1900-09-02 03:00:00 TS 18.4998 -70.8075 main 0 0 P_____________ AL011900 18.4998 -70.8075 TS 37 0 10 293
1900239N15318 1900 22 NA NA NOT_NAMED 1900-09-02 06:00:00 TS 18.7000 -71.3000 35 hurdat_atl main 0 0 O_____________ hurdat_atl AL011900 18.7000 -71.3000 TS 35 0 10 291
1900239N15318 1900 22 NA NA NOT_NAMED 1900-09-02 09:00:00 TS 18.8574 -71.8076 main 0 0 P_____________ AL011900 18.8574 -71.8076 TS 35 0 10 288
1900239N15318 1900 22 NA NA NOT_NAMED 1900-09-02 12:00:00 TS 19.0000 -72.3000 35 hurdat_atl main 0 0 O_____________ hurdat_atl AL011900 19.0000 -72.3000 TS 35 0 9 288
1900239N15318 1900 22 NA CS NOT_NAMED 1900-09-02 15:00:00 TS 19.1573 -72.7575 main 0 0 P_____________ AL011900 19.1573 -72.7575 TS 35 0 9 289
1900239N15318 1900 22 NA CS NOT_NAMED 1900-09-02 18:00:00 TS 19.3000 -73.2000 35 hurdat_atl main 33 22 O_____________ hurdat_atl AL011900 19.3000 -73.2000 TS 35 0 9 287
1900239N15318 1900 22 NA CS NOT_NAMED 1900-09-02 21:00:00 TS 19.4074 -73.6501 main 38 38 P_____________ AL011900 19.4074 -73.6501 TS 35 0 9 283
1900239N15318 1900 22 NA CS NOT_NAMED 1900-09-03 00:00:00 TS 19.5000 -74.1000 35 hurdat_atl main 66 54 O_____________ hurdat_atl AL011900 19.5000 -74.1000 TS 35 0 9 282
1900239N15318 1900 22 NA CS NOT_NAMED 1900-09-03 03:00:00 TS 19.5923 -74.5426 main 54 22 P_____________ AL011900 19.5923 -74.5426 TS 35 0 9 283
1900239N15318 1900 22 NA CS NOT_NAMED 1900-09-03 06:00:00 TS 19.7000 -75.0000 35 hurdat_atl main 22 11 O_____________ hurdat_atl AL011900 19.7000 -75.0000 TS 35 0 10 285
1900239N15318 1900 22 NA CS NOT_NAMED 1900-09-03 09:00:00 TS 19.8426 -75.5224 main 11 0 P_____________ AL011900 19.8426 -75.5224 TS 35 0 10 288
1900239N15318 1900 22 NA CS NOT_NAMED 1900-09-03 12:00:00 TS 20.0000 -76.0000 35 hurdat_atl main 0 0 O_____________ hurdat_atl AL011900 20.0000 -76.0000 TS 35 0 8 292
1900239N15318 1900 22 NA NA NOT_NAMED 1900-09-03 15:00:00 TS 20.1498 -76.3301 main 0 0 P_____________ AL011900 20.1498 -76.3301 TS 35 0 6 298
1900239N15318 1900 22 NA NA NOT_NAMED 1900-09-03 18:00:00 TS 20.3000 -76.6000 35 hurdat_atl main 0 0 O_____________ hurdat_atl AL011900 20.3000 -76.6000 TS 35 0 6 298
1900239N15318 1900 22 NA NA NOT_NAMED 1900-09-03 21:00:00 TS 20.4425 -76.9076 main 0 0 P_____________ AL011900 20.4425 -76.9076 TS 35 0 6 298
1900239N15318 1900 22 NA CS NOT_NAMED 1900-09-04 00:00:00 TS 20.6000 -77.2000 35 hurdat_atl main 0 0 O_____________ hurdat_atl AL011900 20.6000 -77.2000 TS 35 0 6 305
1900239N15318 1900 22 NA NA NOT_NAMED 1900-09-04 03:00:00 TS 20.7999 -77.4500 main 0 0 P_____________ AL011900 20.7999 -77.4500 TS 35 0 6 311
1900239N15318 1900 22 NA NA NOT_NAMED 1900-09-04 06:00:00 TS 21.0000 -77.7000 35 hurdat_atl main 0 0 O_____________ hurdat_atl AL011900 21.0000 -77.7000 TS 35 0 6 305
1900239N15318 1900 22 NA NA NOT_NAMED 1900-09-04 09:00:00 TS 21.1575 -77.9926 main 0 0 P_____________ AL011900 21.1575 -77.9926 TS 35 0 6 298
1900239N15318 1900 22 NA NA NOT_NAMED 1900-09-04 12:00:00 TS 21.3000 -78.3000 35 hurdat_atl main 0 0 O_____________ hurdat_atl AL011900 21.3000 -78.3000 TS 35 0 6 297
1900239N15318 1900 22 NA CS NOT_NAMED 1900-09-04 15:00:00 TS 21.4424 -78.6001 main 0 0 P_____________ AL011900 21.4424 -78.6001 TS 35 0 6 298
1900239N15318 1900 22 NA CS NOT_NAMED 1900-09-04 18:00:00 TS 21.6000 -78.9000 35 hurdat_atl main 0 0 O_____________ hurdat_atl AL011900 21.6000 -78.9000 TS 35 0 7 302
1900239N15318 1900 22 NA NA NOT_NAMED 1900-09-04 21:00:00 TS 21.7924 -79.2000 main 0 0 P_____________ AL011900 21.7924 -79.2000 TS 35 0 7 306
1900239N15318 1900 22 NA NA NOT_NAMED 1900-09-05 00:00:00 TS 22.0000 -79.5000 35 hurdat_atl main 0 0 O_____________ hurdat_atl AL011900 22.0000 -79.5000 TS 35 0 7 305
1900239N15318 1900 22 NA NA NOT_NAMED 1900-09-05 03:00:00 TS 22.1849 -79.8002 main 0 0 P_____________ AL011900 22.1849 -79.8002 TS 35 0 7 306
1900239N15318 1900 22 NA NA NOT_NAMED 1900-09-05 06:00:00 TS 22.4000 -80.1000 35 hurdat_atl main 0 0 O_____________ hurdat_atl AL011900 22.4000 -80.1000 TS 35 0 7 313
1900239N15318 1900 22 NA NA NOT_NAMED 1900-09-05 09:00:00 TS 22.6924 -80.3851 main 0 0 P_____________ AL011900 22.6924 -80.3851 TS 40 0 8 317
1900239N15318 1900 22 NA NA NOT_NAMED 1900-09-05 12:00:00 TS 23.0000 -80.7000 45 hurdat_atl main 0 0 O_____________ hurdat_atl AL011900 23.0000 -80.7000 TS 45 0 9 311
1900239N15318 1900 22 NA NA NOT_NAMED 1900-09-05 15:00:00 TS 23.2500 -81.0852 main 30 24 P_____________ AL011900 23.2500 -81.0852 TS 50 0 9 304
1900239N15318 1900 22 NA NA NOT_NAMED 1900-09-05 18:00:00 TS 23.5000 -81.5000 55 hurdat_atl main 45 44 O_____________ hurdat_atl AL011900 23.5000 -81.5000 TS 55 0 9 306
1900239N15318 1900 22 NA NA NOT_NAMED 1900-09-05 21:00:00 TS 23.7848 -81.8928 main 78 78 P_____________ AL011900 23.7848 -81.8928 TS 57 0 9 309
1900239N15318 1900 22 NA NA NOT_NAMED 1900-09-06 00:00:00 TS 24.1000 -82.3000 60 hurdat_atl main 111 111 O_____________ hurdat_atl AL011900 24.1000 -82.3000 TS 60 0 10 310
1900239N15318 1900 22 NA NA NOT_NAMED 1900-09-06 03:00:00 TS 24.4424 -82.7426 main 146 146 P_____________ AL011900 24.4424 -82.7426 TS 62 0 11 311
1900239N15318 1900 22 NA GM NOT_NAMED 1900-09-06 06:00:00 TS 24.8000 -83.2000 65 hurdat_atl main 194 194 O_____________ hurdat_atl AL011900 24.8000 -83.2000 HU 65 1 11 311
1900239N15318 1900 22 NA GM NOT_NAMED 1900-09-06 09:00:00 TS 25.1572 -83.6353 main 205 205 P_____________ AL011900 25.1572 -83.6353 HU 70 1 11 311
1900239N15318 1900 22 NA GM NOT_NAMED 1900-09-06 12:00:00 TS 25.5000 -84.1000 75 hurdat_atl main 230 230 O_____________ hurdat_atl AL011900 25.5000 -84.1000 HU 75 1 11 306
1900239N15318 1900 22 NA GM NOT_NAMED 1900-09-06 15:00:00 TS 25.8225 -84.6425 main 254 254 P_____________ AL011900 25.8225 -84.6425 HU 80 1 12 301
1900239N15318 1900 22 NA GM NOT_NAMED 1900-09-06 18:00:00 TS 26.1000 -85.2000 85 974 hurdat_atl main 290 290 O_____________ hurdat_atl AL011900 26.1000 -85.2000 HU 85 974 2 11 298
1900239N15318 1900 22 NA GM NOT_NAMED 1900-09-06 21:00:00 TS 26.3221 -85.6929 main 327 327 P_____________ AL011900 26.3221 -85.6929 HU 90 2 10 294
1900239N15318 1900 22 NA GM NOT_NAMED 1900-09-07 00:00:00 TS 26.5000 -86.2000 95 hurdat_atl main 361 348 O_____________ hurdat_atl AL011900 26.5000 -86.2000 HU 95 2 10 289
1900239N15318 1900 22 NA GM NOT_NAMED 1900-09-07 03:00:00 TS 26.6648 -86.7776 main 341 296 P_____________ AL011900 26.6648 -86.7776 HU 100 3 11 286
1900239N15318 1900 22 NA GM NOT_NAMED 1900-09-07 06:00:00 TS 26.8000 -87.4000 105 hurdat_atl main 296 258 O_____________ hurdat_atl AL011900 26.8000 -87.4000 HU 105 3 12 282
1900239N15318 1900 22 NA GM NOT_NAMED 1900-09-07 09:00:00 TS 26.9076 -88.0651 main 254 226 P_____________ AL011900 26.9076 -88.0651 HU 110 3 12 280
1900239N15318 1900 22 NA GM NOT_NAMED 1900-09-07 12:00:00 TS 27.0000 -88.7000 115 hurdat_atl main 226 212 O_____________ hurdat_atl AL011900 27.0000 -88.7000 HU 115 4 11 280
1900239N15318 1900 22 NA GM NOT_NAMED 1900-09-07 15:00:00 TS 27.0996 -89.2301 main 212 204 P_____________ AL011900 27.0996 -89.2301 HU 120 4 9 283
1900239N15318 1900 22 NA GM NOT_NAMED 1900-09-07 18:00:00 TS 27.2000 -89.7000 125 hurdat_atl main 209 200 O_____________ hurdat_atl AL011900 27.2000 -89.7000 HU 125 4 8 284
1900239N15318 1900 22 NA GM NOT_NAMED 1900-09-07 21:00:00 TS 27.2998 -90.1576 main 200 189 P_____________ AL011900 27.2998 -90.1576 HU 125 4 8 284
1900239N15318 1900 22 NA GM NOT_NAMED 1900-09-08 00:00:00 TS 27.4000 -90.6000 125 hurdat_atl main 189 178 O_____________ hurdat_atl AL011900 27.4000 -90.6000 HU 125 4 8 284
1900239N15318 1900 22 NA GM NOT_NAMED 1900-09-08 03:00:00 TS 27.4999 -91.0501 main 179 171 P_____________ AL011900 27.4999 -91.0501 HU 125 4 8 284
1900239N15318 1900 22 NA GM NOT_NAMED 1900-09-08 06:00:00 TS 27.6000 -91.5000 125 hurdat_atl main 177 177 O_____________ hurdat_atl AL011900 27.6000 -91.5000 HU 125 4 8 283
1900239N15318 1900 22 NA GM NOT_NAMED 1900-09-08 09:00:00 TS 27.6847 -91.9353 main 184 184 P_____________ AL011900 27.6847 -91.9353 HU 122 4 8 284
1900239N15318 1900 22 NA GM NOT_NAMED 1900-09-08 12:00:00 TS 27.8000 -92.4000 120 hurdat_atl main 190 177 O_____________ hurdat_atl AL011900 27.8000 -92.4000 HU 120 4 9 288
1900239N15318 1900 22 NA GM NOT_NAMED 1900-09-08 15:00:00 TS 27.9624 -92.9279 main 177 169 P_____________ AL011900 27.9624 -92.9279 HU 120 4 11 292
1900239N15318 1900 22 NA GM NOT_NAMED 1900-09-08 18:00:00 TS 28.2000 -93.5000 120 hurdat_atl main 169 118 O_____________ hurdat_atl AL011900 28.2000 -93.5000 HU 120 4 12 299
1900239N15318 1900 22 NA GM NOT_NAMED 1900-09-08 21:00:00 TS 28.5421 -94.0933 main 118 48 P_____________ AL011900 28.5421 -94.0933 HU 120 4 13 304
1900239N15318 1900 22 NA GM NOT_NAMED 1900-09-09 00:00:00 TS 28.9000 -94.7000 120 936 hurdat_atl main 48 9 O_____________ hurdat_atl AL011900 28.9000 -94.7000 HU 120 936 4 13 302
1900239N15318 1900 22 NA GM NOT_NAMED 1900-09-09 02:00:00 TS 29.1000 -95.1000 120 936 hurdat_atl main 9 0 O_____________ hurdat_atl AL011900 29.1000 -95.1000 L HU 120 936 4 13 303
1900239N15318 1900 22 NA NA NOT_NAMED 1900-09-09 03:00:00 TS 29.2422 -95.3036 main 0 0 P_____________ AL011900 29.2422 -95.3036 HU 112 3 15 315
1900239N15318 1900 22 NA NA NOT_NAMED 1900-09-09 06:00:00 TS 29.8000 -95.9000 90 hurdat_atl main 0 0 O_____________ hurdat_atl AL011900 29.8000 -95.9000 HU 90 2 15 319
1900239N15318 1900 22 NA NA NOT_NAMED 1900-09-09 09:00:00 TS 30.3862 -96.4397 main 0 0 P_____________ AL011900 30.3862 -96.4397 HU 77 1 15 324
1900239N15318 1900 22 NA NA NOT_NAMED 1900-09-09 12:00:00 TS 31.0000 -96.9000 65 hurdat_atl main 0 0 O_____________ hurdat_atl AL011900 31.0000 -96.9000 HU 65 1 14 328
1900239N15318 1900 22 NA NA NOT_NAMED 1900-09-09 15:00:00 TS 31.5999 -97.3101 main 0 0 P_____________ AL011900 31.5999 -97.3101 HU 57 0 13 334
1900239N15318 1900 22 NA NA NOT_NAMED 1900-09-09 18:00:00 TS 32.2000 -97.6000 50 hurdat_atl main 0 0 O_____________ hurdat_atl AL011900 32.2000 -97.6000 TS 50 0 13 343
1900239N15318 1900 22 NA NA NOT_NAMED 1900-09-09 21:00:00 TS 32.7923 -97.7531 main 0 0 P_____________ AL011900 32.7923 -97.7531 TS 47 0 12 352
1900239N15318 1900 22 NA NA NOT_NAMED 1900-09-10 00:00:00 TS 33.4000 -97.8000 45 hurdat_atl main 0 0 O_____________ hurdat_atl AL011900 33.4000 -97.8000 TS 45 0 13 357
1900239N15318 1900 22 NA NA NOT_NAMED 1900-09-10 03:00:00 TS 34.0425 -97.8300 main 0 0 P_____________ AL011900 34.0425 -97.8300 TS 42 0 13 1
1900239N15318 1900 22 NA NA NOT_NAMED 1900-09-10 06:00:00 TS 34.7000 -97.8000 40 hurdat_atl main 0 0 O_____________ hurdat_atl AL011900 34.7000 -97.8000 TS 40 0 13 4
1900239N15318 1900 22 NA NA NOT_NAMED 1900-09-10 09:00:00 TS 35.3425 -97.7225 main 0 0 P_____________ AL011900 35.3425 -97.7225 TS 37 0 13 7
1900239N15318 1900 22 NA NA NOT_NAMED 1900-09-10 12:00:00 TS 36.0000 -97.6000 35 hurdat_atl main 0 0 O_____________ hurdat_atl AL011900 36.0000 -97.6000 TS 35 0 14 8
1900239N15318 1900 22 NA NA NOT_NAMED 1900-09-10 15:00:00 TS 36.6923 -97.4939 main 0 0 P_____________ AL011900 36.6923 -97.4939 TS 32 -1 14 10
1900239N15318 1900 22 NA NA NOT_NAMED 1900-09-10 18:00:00 TS 37.4000 -97.3000 30 hurdat_atl main 0 0 O_____________ hurdat_atl AL011900 37.4000 -97.3000 TD 30 -1 15 16
1900239N15318 1900 22 NA NA NOT_NAMED 1900-09-10 21:00:00 TS 38.0996 -96.9815 main 0 0 P_____________ AL011900 38.0996 -96.9815 TD 30 -1 15 24
1900239N15318 1900 22 NA NA NOT_NAMED 1900-09-11 00:00:00 TS 38.8000 -96.5000 30 hurdat_atl main 0 0 O_____________ hurdat_atl AL011900 38.8000 -96.5000 TD 30 -1 16 30
1900239N15318 1900 22 NA NA NOT_NAMED 1900-09-11 03:00:00 TS 39.5055 -95.9397 main 0 0 P_____________ AL011900 39.5055 -95.9397 TD 30 -1 18 38
1900239N15318 1900 22 NA NA NOT_NAMED 1900-09-11 06:00:00 TS 40.2000 -95.1000 30 hurdat_atl main 0 0 O_____________ hurdat_atl AL011900 40.2000 -95.1000 TD 30 -1 21 48
1900239N15318 1900 22 NA NA NOT_NAMED 1900-09-11 09:00:00 TS 40.8705 -93.9282 main 0 0 P_____________ AL011900 40.8705 -93.9282 TD 35 0 24 58
1900239N15318 1900 22 NA NA NOT_NAMED 1900-09-11 12:00:00 ET 41.5000 -92.4000 40 hurdat_atl main 0 0 O_____________ hurdat_atl AL011900 41.5000 -92.4000 EX 40 -4 28 64
1900239N15318 1900 22 NA NA NOT_NAMED 1900-09-11 15:00:00 ET 42.0857 -90.6259 main 0 0 P_____________ AL011900 42.0857 -90.6259 EX 45 -4 30 69
1900239N15318 1900 22 NA NA NOT_NAMED 1900-09-11 18:00:00 ET 42.6000 -88.6000 50 hurdat_atl main 0 0 O_____________ hurdat_atl AL011900 42.6000 -88.6000 EX 50 -4 32 73
1900239N15318 1900 22 NA NA NOT_NAMED 1900-09-11 21:00:00 ET 43.0115 -86.4690 main 0 0 P_____________ AL011900 43.0115 -86.4690 EX 52 -4 33 76
1900239N15318 1900 22 NA NA NOT_NAMED 1900-09-12 00:00:00 ET 43.4000 -84.2000 55 hurdat_atl main 0 0 O_____________ hurdat_atl AL011900 43.4000 -84.2000 EX 55 -4 35 76
1900239N15318 1900 22 NA NA NOT_NAMED 1900-09-12 03:00:00 ET 43.8390 -81.8350 main 0 0 P_____________ AL011900 43.8390 -81.8350 EX 57 -4 36 75
1900239N15318 1900 22 NA NA NOT_NAMED 1900-09-12 06:00:00 ET 44.3000 -79.4000 60 hurdat_atl main 0 0 O_____________ hurdat_atl AL011900 44.3000 -79.4000 EX 60 -4 36 76
1900239N15318 1900 22 NA NA NOT_NAMED 1900-09-12 09:00:00 ET 44.7289 -76.9736 main 0 0 P_____________ AL011900 44.7289 -76.9736 EX 62 -4 36 76
1900239N15318 1900 22 NA NA NOT_NAMED 1900-09-12 12:00:00 ET 45.2000 -74.5000 65 hurdat_atl main 0 0 O_____________ hurdat_atl AL011900 45.2000 -74.5000 EX 65 -4 37 74
1900239N15318 1900 22 NA NA NOT_NAMED 1900-09-12 15:00:00 ET 45.7228 -71.9260 main 0 0 P_____________ AL011900 45.7228 -71.9260 EX 65 -4 38 73
1900239N15318 1900 22 NA NA NOT_NAMED 1900-09-12 18:00:00 ET 46.3000 -69.3000 65 hurdat_atl main 0 0 O_____________ hurdat_atl AL011900 46.3000 -69.3000 EX 65 -4 38 72
1900239N15318 1900 22 NA NA NOT_NAMED 1900-09-12 21:00:00 ET 46.8945 -66.6541 main 0 0 P_____________ AL011900 46.8945 -66.6541 EX 65 -4 38 72
1900239N15318 1900 22 NA NA NOT_NAMED 1900-09-13 00:00:00 ET 47.5000 -64.0000 65 hurdat_atl main 55 55 O_____________ hurdat_atl AL011900 47.5000 -64.0000 EX 65 -4 38 72
1900239N15318 1900 22 NA NA NOT_NAMED 1900-09-13 03:00:00 ET 48.0538 -61.3074 main 114 0 P_____________ AL011900 48.0538 -61.3074 EX 65 -4 37 73
1900239N15318 1900 22 NA NA NOT_NAMED 1900-09-13 06:00:00 ET 48.6000 -58.7000 65 hurdat_atl main 0 0 O_____________ hurdat_atl AL011900 48.6000 -58.7000 EX 65 -4 35 72
1900239N15318 1900 22 NA NA NOT_NAMED 1900-09-13 09:00:00 ET 49.1605 -56.2080 main 0 0 P_____________ AL011900 49.1605 -56.2080 EX 65 -4 33 71
1900239N15318 1900 22 NA NA NOT_NAMED 1900-09-13 12:00:00 ET 49.7000 -53.9000 65 hurdat_atl main 33 33 O_____________ hurdat_atl AL011900 49.7000 -53.9000 EX 65 -4 30 71
1900239N15318 1900 22 NA NA NOT_NAMED 1900-09-13 15:00:00 ET 50.1676 -51.7551 main 157 157 P_____________ AL011900 50.1676 -51.7551 EX 62 -4 28 71
1900239N15318 1900 22 NA NA NOT_NAMED 1900-09-13 18:00:00 ET 50.6000 -49.8000 60 hurdat_atl main 300 300 O_____________ hurdat_atl AL011900 50.6000 -49.8000 EX 60 -4 26 71
1900239N15318 1900 22 NA NA NOT_NAMED 1900-09-13 21:00:00 ET 51.0116 -47.9294 main 439 439 P_____________ AL011900 51.0116 -47.9294 EX 57 -4 24 71
1900239N15318 1900 22 NA NA NOT_NAMED 1900-09-14 00:00:00 ET 51.4000 -46.2000 55 hurdat_atl main 565 565 O_____________ hurdat_atl AL011900 51.4000 -46.2000 EX 55 -4 22 71
1900239N15318 1900 22 NA NA NOT_NAMED 1900-09-14 03:00:00 ET 51.7396 -44.5500 main 686 686 P_____________ AL011900 51.7396 -44.5500 EX 52 -4 21 71
1900239N15318 1900 22 NA NA NOT_NAMED 1900-09-14 06:00:00 ET 52.1000 -43.0000 50 hurdat_atl main 797 797 O_____________ hurdat_atl AL011900 52.1000 -43.0000 EX 50 -4 20 68
1900239N15318 1900 22 NA NA NOT_NAMED 1900-09-14 09:00:00 ET 52.5181 -41.4672 main 847 807 P_____________ AL011900 52.5181 -41.4672 EX 47 -4 20 64
1900239N15318 1900 22 NA NA NOT_NAMED 1900-09-14 12:00:00 ET 53.0000 -40.0000 45 hurdat_atl main 808 777 O_____________ hurdat_atl AL011900 53.0000 -40.0000 EX 45 -4 20 60
1900239N15318 1900 22 NA NA NOT_NAMED 1900-09-14 15:00:00 ET 53.5259 -38.5673 main 779 749 P_____________ AL011900 53.5259 -38.5673 EX 45 -4 20 57
1900239N15318 1900 22 NA NA NOT_NAMED 1900-09-14 18:00:00 ET 54.1000 -37.2000 45 hurdat_atl main 752 737 O_____________ hurdat_atl AL011900 54.1000 -37.2000 EX 45 -4 19 54
1900239N15318 1900 22 NA NA NOT_NAMED 1900-09-14 21:00:00 ET 54.6761 -35.8656 main 734 725 P_____________ AL011900 54.6761 -35.8656 EX 45 -4 19 51
1900239N15318 1900 22 NA NA NOT_NAMED 1900-09-15 00:00:00 ET 55.3000 -34.6000 45 hurdat_atl main 730 723 O_____________ hurdat_atl AL011900 55.3000 -34.6000 EX 45 -4 19 48
1900239N15318 1900 22 NA NA NOT_NAMED 1900-09-15 03:00:00 ET 55.9763 -33.3665 main 725 725 P_____________ AL011900 55.9763 -33.3665 EX 42 -4 19 44
1900239N15318 1900 22 NA NA NOT_NAMED 1900-09-15 06:00:00 ET 56.7000 -32.2000 40 hurdat_atl main 733 732 O_____________ hurdat_atl AL011900 56.7000 -32.2000 EX 40 -4 19 41
1900239N15318 1900 22 NA NA NOT_NAMED 1900-09-15 09:00:00 ET 57.4190 -31.0644 main 748 734 P_____________ AL011900 57.4190 -31.0644 EX 40 -4 19 38
1900239N15318 1900 22 NA NA NOT_NAMED 1900-09-15 12:00:00 ET 58.2000 -30.0000 40 hurdat_atl main 731 629 O_____________ hurdat_atl AL011900 58.2000 -30.0000 EX 40 -4 20 33
1900239N15318 1900 22 NA NA NOT_NAMED 1900-09-15 15:00:00 ET 59.0739 -28.9965 main 616 514 P_____________ AL011900 59.0739 -28.9965 EX 37 -4 21 30
1900239N15318 1900 22 NA NA NOT_NAMED 1900-09-15 18:00:00 ET 60.0000 -28.0000 35 hurdat_atl main 502 O_____________ hurdat_atl AL011900 60.0000 -28.0000 EX 35 -4 21 28

IBTrACS Databaseについて

本データベースは、米国NOAAが公開する1842年以降の世界の熱帯低気圧のベストトラックデータアーカイブInternational Best Track Archive for Climate Stewardship (IBTrACS)を、ウェブで閲覧しやすい形式に変換したものです。

最終更新日:2021-11-26